Airport View

Enter AWOS ICAO identifier for current METAR.

ex. KFNL

KONT 191853Z VRB04KT 5SM HZ FEW090 26/16 A2998 RMK AO2 SLP140 T02560161

19 Jun 2019 19:55

Phone: 909-937-2186

Other Area AWOS: KCNO - KPOC - KAJO - KRAL

TAF KONT 191736Z 1918/2024 VRB04KT 3SM HZ SCT012 FM192000 25012KT P6SM FEW100 FM200600 25005KT P6SM SCT015 FM200900 VRB04KT P6SM OVC010 FM201800 VRB03KT 5SM HZ SCT012 FM202000 25012KT P6SM SKC